sensor_id;sensor_type;location;lat;lon;timestamp;pressure;altitude;pressure_sealevel;temperature;humidity
57232;BME280;43488;46.934;8.276;2022-11-20T00:01:32;96119.03;;;5.73;91.37
57232;BME280;43488;46.934;8.276;2022-11-20T00:04:00;96123.75;;;5.63;92.62
57232;BME280;43488;46.934;8.276;2022-11-20T00:06:28;96125.31;;;5.57;92.96
57232;BME280;43488;46.934;8.276;2022-11-20T00:08:58;96130.28;;;5.52;94.30
57232;BME280;43488;46.934;8.276;2022-11-20T00:11:29;96130.91;;;5.54;94.41
57232;BME280;43488;46.934;8.276;2022-11-20T00:14:00;96132.28;;;5.50;94.94
57232;BME280;43488;46.934;8.276;2022-11-20T00:16:31;96134.25;;;5.48;95.63
57232;BME280;43488;46.934;8.276;2022-11-20T00:19:00;96134.81;;;5.43;96.15
57232;BME280;43488;46.934;8.276;2022-11-20T00:21:28;96134.88;;;5.50;95.88
57232;BME280;43488;46.934;8.276;2022-11-20T00:23:57;96141.53;;;5.53;96.05
57232;BME280;43488;46.934;8.276;2022-11-20T00:26:27;96142.97;;;5.55;97.05
57232;BME280;43488;46.934;8.276;2022-11-20T00:29:00;96147.19;;;5.56;97.14
57232;BME280;43488;46.934;8.276;2022-11-20T00:31:29;96144.22;;;5.59;97.53
57232;BME280;43488;46.934;8.276;2022-11-20T00:33:56;96142.84;;;5.63;97.50
57232;BME280;43488;46.934;8.276;2022-11-20T00:36:27;96146.34;;;5.70;97.44
57232;BME280;43488;46.934;8.276;2022-11-20T00:38:57;96152.19;;;5.72;96.92
57232;BME280;43488;46.934;8.276;2022-11-20T00:41:28;96148.56;;;5.74;97.43
57232;BME280;43488;46.934;8.276;2022-11-20T00:43:56;96157.59;;;5.71;96.71
57232;BME280;43488;46.934;8.276;2022-11-20T00:46:26;96151.75;;;5.69;97.07
57232;BME280;43488;46.934;8.276;2022-11-20T00:48:54;96155.19;;;5.69;97.12
57232;BME280;43488;46.934;8.276;2022-11-20T00:51:24;96154.81;;;5.72;97.22
57232;BME280;43488;46.934;8.276;2022-11-20T00:53:56;96155.97;;;5.70;97.29
57232;BME280;43488;46.934;8.276;2022-11-20T00:56:25;96158.41;;;5.71;97.37
57232;BME280;43488;46.934;8.276;2022-11-20T00:58:55;96164.88;;;5.76;97.69
57232;BME280;43488;46.934;8.276;2022-11-20T01:01:25;96162.53;;;5.81;97.54
57232;BME280;43488;46.934;8.276;2022-11-20T01:03:55;96165.06;;;5.74;97.29
57232;BME280;43488;46.934;8.276;2022-11-20T01:06:34;96170.47;;;5.72;97.21
57232;BME280;43488;46.934;8.276;2022-11-20T01:09:11;96168.44;;;5.68;98.16
57232;BME280;43488;46.934;8.276;2022-11-20T01:11:42;96164.06;;;5.75;98.04
57232;BME280;43488;46.934;8.276;2022-11-20T01:14:17;96165.31;;;5.79;98.24
57232;BME280;43488;46.934;8.276;2022-11-20T01:16:50;96163.94;;;5.83;98.34
57232;BME280;43488;46.934;8.276;2022-11-20T01:19:21;96163.31;;;5.81;98.06
57232;BME280;43488;46.934;8.276;2022-11-20T01:21:53;96162.13;;;5.84;97.70
57232;BME280;43488;46.934;8.276;2022-11-20T01:24:22;96170.44;;;5.87;97.72
57232;BME280;43488;46.934;8.276;2022-11-20T01:26:51;96173.22;;;5.86;97.24
57232;BME280;43488;46.934;8.276;2022-11-20T01:29:22;96174.03;;;5.86;96.91
57232;BME280;43488;46.934;8.276;2022-11-20T01:31:50;96175.59;;;5.81;97.29
57232;BME280;43488;46.934;8.276;2022-11-20T01:34:20;96181.00;;;5.79;97.16
57232;BME280;43488;46.934;8.276;2022-11-20T01:36:50;96182.22;;;5.83;96.89
57232;BME280;43488;46.934;8.276;2022-11-20T01:39:22;96184.50;;;5.86;96.10
57232;BME280;43488;46.934;8.276;2022-11-20T01:41:51;96180.25;;;5.85;96.87
57232;BME280;43488;46.934;8.276;2022-11-20T01:44:58;96177.72;;;5.92;97.25
57232;BME280;43488;46.934;8.276;2022-11-20T01:47:35;96187.09;;;5.86;98.21
57232;BME280;43488;46.934;8.276;2022-11-20T01:50:24;96190.16;;;5.90;98.30
57232;BME280;43488;46.934;8.276;2022-11-20T01:53:07;96188.78;;;5.94;97.38
57232;BME280;43488;46.934;8.276;2022-11-20T01:55:41;96190.44;;;5.95;97.02
57232;BME280;43488;46.934;8.276;2022-11-20T01:58:10;96191.59;;;5.92;97.20
57232;BME280;43488;46.934;8.276;2022-11-20T02:00:38;96198.97;;;5.89;97.58
57232;BME280;43488;46.934;8.276;2022-11-20T02:03:11;96201.25;;;5.92;97.68
57232;BME280;43488;46.934;8.276;2022-11-20T02:05:50;96199.63;;;5.91;97.64
57232;BME280;43488;46.934;8.276;2022-11-20T02:08:19;96193.41;;;5.92;97.59
57232;BME280;43488;46.934;8.276;2022-11-20T02:10:48;96193.06;;;5.95;97.73
57232;BME280;43488;46.934;8.276;2022-11-20T02:13:16;96198.44;;;5.93;97.97
57232;BME280;43488;46.934;8.276;2022-11-20T02:16:03;96196.63;;;5.94;98.20
57232;BME280;43488;46.934;8.276;2022-11-20T02:18:31;96193.06;;;5.95;98.14
57232;BME280;43488;46.934;8.276;2022-11-20T02:21:20;96198.28;;;5.95;98.33
57232;BME280;43488;46.934;8.276;2022-11-20T02:24:10;96195.03;;;5.93;97.76
57232;BME280;43488;46.934;8.276;2022-11-20T02:27:04;96201.84;;;5.94;97.23
57232;BME280;43488;46.934;8.276;2022-11-20T02:30:00;96196.22;;;5.90;97.10
57232;BME280;43488;46.934;8.276;2022-11-20T02:32:31;96190.97;;;5.90;97.57
57232;BME280;43488;46.934;8.276;2022-11-20T02:37:59;96187.25;;;5.85;98.45
57232;BME280;43488;46.934;8.276;2022-11-20T02:40:28;96187.66;;;5.82;98.99
57232;BME280;43488;46.934;8.276;2022-11-20T02:42:57;96190.25;;;5.82;98.63
57232;BME280;43488;46.934;8.276;2022-11-20T02:45:26;96183.16;;;5.76;98.47
57232;BME280;43488;46.934;8.276;2022-11-20T02:47:53;96186.13;;;5.72;98.59
57232;BME280;43488;46.934;8.276;2022-11-20T02:50:21;96180.72;;;5.74;98.26
57232;BME280;43488;46.934;8.276;2022-11-20T02:52:48;96178.75;;;5.76;98.51
57232;BME280;43488;46.934;8.276;2022-11-20T02:55:17;96181.72;;;5.73;99.17
57232;BME280;43488;46.934;8.276;2022-11-20T02:57:45;96182.91;;;5.70;99.81
57232;BME280;43488;46.934;8.276;2022-11-20T03:00:13;96180.38;;;5.77;99.53
57232;BME280;43488;46.934;8.276;2022-11-20T03:02:41;96193.44;;;5.77;99.59
57232;BME280;43488;46.934;8.276;2022-11-20T03:05:08;96186.59;;;5.76;99.84
57232;BME280;43488;46.934;8.276;2022-11-20T03:07:36;96185.16;;;5.74;99.97
57232;BME280;43488;46.934;8.276;2022-11-20T03:10:05;96183.78;;;5.78;99.84
57232;BME280;43488;46.934;8.276;2022-11-20T03:12:33;96180.00;;;5.80;100.00
57232;BME280;43488;46.934;8.276;2022-11-20T03:15:00;96176.16;;;5.76;100.00
57232;BME280;43488;46.934;8.276;2022-11-20T03:17:27;96172.28;;;5.72;100.00
57232;BME280;43488;46.934;8.276;2022-11-20T03:19:57;96173.88;;;5.73;100.00
57232;BME280;43488;46.934;8.276;2022-11-20T03:22:24;96177.31;;;5.74;100.00
57232;BME280;43488;46.934;8.276;2022-11-20T03:24:52;96181.53;;;5.75;100.00
57232;BME280;43488;46.934;8.276;2022-11-20T03:27:19;96176.88;;;5.70;99.84
57232;BME280;43488;46.934;8.276;2022-11-20T03:29:46;96179.31;;;5.71;99.74
57232;BME280;43488;46.934;8.276;2022-11-20T03:32:14;96176.50;;;5.73;99.83
57232;BME280;43488;46.934;8.276;2022-11-20T03:34:42;96180.09;;;5.72;99.74
57232;BME280;43488;46.934;8.276;2022-11-20T03:37:09;96180.09;;;5.72;99.60
57232;BME280;43488;46.934;8.276;2022-11-20T03:39:37;96181.91;;;5.71;99.58
57232;BME280;43488;46.934;8.276;2022-11-20T03:42:12;96186.72;;;5.68;99.38
57232;BME280;43488;46.934;8.276;2022-11-20T03:44:57;96194.97;;;5.71;98.60
57232;BME280;43488;46.934;8.276;2022-11-20T03:47:25;96204.03;;;5.76;98.96
57232;BME280;43488;46.934;8.276;2022-11-20T03:49:54;96207.66;;;5.75;100.00
57232;BME280;43488;46.934;8.276;2022-11-20T03:52:21;96212.03;;;5.67;100.00
57232;BME280;43488;46.934;8.276;2022-11-20T03:54:48;96220.28;;;5.71;100.00
57232;BME280;43488;46.934;8.276;2022-11-20T03:57:15;96214.16;;;5.79;100.00
57232;BME280;43488;46.934;8.276;2022-11-20T03:59:43;96224.78;;;5.77;100.00
57232;BME280;43488;46.934;8.276;2022-11-20T04:02:10;96220.59;;;5.83;100.00
57232;BME280;43488;46.934;8.276;2022-11-20T04:04:38;96220.78;;;5.81;100.00
57232;BME280;43488;46.934;8.276;2022-11-20T04:07:05;96221.59;;;5.82;100.00
57232;BME280;43488;46.934;8.276;2022-11-20T04:09:32;96217.19;;;5.82;100.00
57232;BME280;43488;46.934;8.276;2022-11-20T04:12:00;96218.38;;;5.80;100.00
57232;BME280;43488;46.934;8.276;2022-11-20T04:14:27;96213.56;;;5.83;100.00
57232;BME280;43488;46.934;8.276;2022-11-20T04:16:54;96215.03;;;5.86;100.00
57232;BME280;43488;46.934;8.276;2022-11-20T04:19:21;96214.75;;;5.81;100.00
57232;BME280;43488;46.934;8.276;2022-11-20T04:21:49;96209.16;;;5.84;100.00
57232;BME280;43488;46.934;8.276;2022-11-20T04:24:17;96215.16;;;5.78;100.00
57232;BME280;43488;46.934;8.276;2022-11-20T04:26:44;96209.28;;;5.76;100.00
57232;BME280;43488;46.934;8.276;2022-11-20T04:29:11;96218.75;;;5.77;100.00
57232;BME280;43488;46.934;8.276;2022-11-20T04:31:39;96208.47;;;5.75;100.00
57232;BME280;43488;46.934;8.276;2022-11-20T04:34:07;96211.72;;;5.77;100.00
57232;BME280;43488;46.934;8.276;2022-11-20T04:36:34;96210.09;;;5.76;100.00
57232;BME280;43488;46.934;8.276;2022-11-20T04:39:04;96210.72;;;5.78;100.00
57232;BME280;43488;46.934;8.276;2022-11-20T04:41:35;96208.13;;;5.78;100.00
57232;BME280;43488;46.934;8.276;2022-11-20T04:44:06;96202.09;;;5.78;100.00
57232;BME280;43488;46.934;8.276;2022-11-20T04:46:42;96210.91;;;5.77;100.00
57232;BME280;43488;46.934;8.276;2022-11-20T04:49:11;96206.50;;;5.77;100.00
57232;BME280;43488;46.934;8.276;2022-11-20T04:51:39;96198.97;;;5.67;100.00
57232;BME280;43488;46.934;8.276;2022-11-20T04:54:08;96205.53;;;5.63;100.00
57232;BME280;43488;46.934;8.276;2022-11-20T04:56:35;96213.34;;;5.63;100.00
57232;BME280;43488;46.934;8.276;2022-11-20T04:59:03;96215.97;;;5.63;100.00
57232;BME280;43488;46.934;8.276;2022-11-20T05:01:31;96208.13;;;5.63;100.00
57232;BME280;43488;46.934;8.276;2022-11-20T05:04:00;96204.28;;;5.59;100.00
57232;BME280;43488;46.934;8.276;2022-11-20T05:06:28;96210.22;;;5.53;100.00
57232;BME280;43488;46.934;8.276;2022-11-20T05:08:56;96207.81;;;5.52;100.00
57232;BME280;43488;46.934;8.276;2022-11-20T05:11:27;96206.53;;;5.48;100.00
57232;BME280;43488;46.934;8.276;2022-11-20T05:13:59;96210.13;;;5.47;100.00
57232;BME280;43488;46.934;8.276;2022-11-20T05:16:27;96202.13;;;5.48;100.00
57232;BME280;43488;46.934;8.276;2022-11-20T05:18:55;96195.03;;;5.42;100.00
57232;BME280;43488;46.934;8.276;2022-11-20T05:21:22;96201.25;;;5.41;100.00
57232;BME280;43488;46.934;8.276;2022-11-20T05:23:51;96207.28;;;5.41;100.00
57232;BME280;43488;46.934;8.276;2022-11-20T05:26:21;96207.09;;;5.43;100.00
57232;BME280;43488;46.934;8.276;2022-11-20T05:28:50;96208.81;;;5.36;100.00
57232;BME280;43488;46.934;8.276;2022-11-20T05:31:21;96215.03;;;5.35;100.00
57232;BME280;43488;46.934;8.276;2022-11-20T05:33:49;96210.97;;;5.32;100.00
57232;BME280;43488;46.934;8.276;2022-11-20T05:36:17;96212.25;;;5.22;100.00
57232;BME280;43488;46.934;8.276;2022-11-20T05:38:44;96217.00;;;5.18;100.00
57232;BME280;43488;46.934;8.276;2022-11-20T05:41:17;96210.34;;;5.16;100.00
57232;BME280;43488;46.934;8.276;2022-11-20T05:43:47;96216.19;;;5.18;100.00
57232;BME280;43488;46.934;8.276;2022-11-20T05:46:18;96220.44;;;5.19;100.00
57232;BME280;43488;46.934;8.276;2022-11-20T05:48:46;96222.03;;;5.20;100.00
57232;BME280;43488;46.934;8.276;2022-11-20T05:51:17;96223.66;;;5.21;100.00
57232;BME280;43488;46.934;8.276;2022-11-20T05:53:45;96217.00;;;5.18;100.00
57232;BME280;43488;46.934;8.276;2022-11-20T05:56:16;96216.81;;;5.20;100.00
57232;BME280;43488;46.934;8.276;2022-11-20T05:58:45;96215.22;;;5.19;100.00
57232;BME280;43488;46.934;8.276;2022-11-20T06:01:22;96220.91;;;5.22;100.00
57232;BME280;43488;46.934;8.276;2022-11-20T06:03:52;96219.09;;;5.23;100.00
57232;BME280;43488;46.934;8.276;2022-11-20T06:06:20;96219.19;;;5.14;100.00
57232;BME280;43488;46.934;8.276;2022-11-20T06:08:48;96218.63;;;5.19;100.00
57232;BME280;43488;46.934;8.276;2022-11-20T06:11:16;96222.31;;;5.25;100.00
57232;BME280;43488;46.934;8.276;2022-11-20T06:13:44;96219.09;;;5.23;100.00
57232;BME280;43488;46.934;8.276;2022-11-20T06:16:15;96224.03;;;5.18;100.00
57232;BME280;43488;46.934;8.276;2022-11-20T06:18:44;96224.22;;;5.16;100.00
57232;BME280;43488;46.934;8.276;2022-11-20T06:21:18;96232.03;;;5.16;100.00
57232;BME280;43488;46.934;8.276;2022-11-20T06:23:46;96230.88;;;5.19;100.00
57232;BME280;43488;46.934;8.276;2022-11-20T06:26:18;96230.16;;;5.10;100.00
57232;BME280;43488;46.934;8.276;2022-11-20T06:28:45;96229.59;;;5.00;100.00
57232;BME280;43488;46.934;8.276;2022-11-20T06:31:15;96222.94;;;4.97;100.00
57232;BME280;43488;46.934;8.276;2022-11-20T06:33:43;96214.84;;;4.92;100.00
57232;BME280;43488;46.934;8.276;2022-11-20T06:36:14;96221.53;;;4.95;100.00
57232;BME280;43488;46.934;8.276;2022-11-20T06:38:42;96233.38;;;4.97;100.00
57232;BME280;43488;46.934;8.276;2022-11-20T06:41:16;96224.13;;;4.95;100.00
57232;BME280;43488;46.934;8.276;2022-11-20T06:43:44;96230.59;;;4.99;100.00
57232;BME280;43488;46.934;8.276;2022-11-20T06:46:14;96237.06;;;5.03;100.00
57232;BME280;43488;46.934;8.276;2022-11-20T06:48:45;96229.22;;;5.03;100.00
57232;BME280;43488;46.934;8.276;2022-11-20T06:51:13;96234.38;;;4.96;100.00
57232;BME280;43488;46.934;8.276;2022-11-20T06:53:40;96249.94;;;5.04;100.00
57232;BME280;43488;46.934;8.276;2022-11-20T06:56:08;96241.47;;;5.02;100.00
57232;BME280;43488;46.934;8.276;2022-11-20T06:58:36;96242.56;;;5.08;100.00
57232;BME280;43488;46.934;8.276;2022-11-20T07:01:10;96255.25;;;5.11;100.00
57232;BME280;43488;46.934;8.276;2022-11-20T07:03:39;96257.84;;;5.11;100.00
57232;BME280;43488;46.934;8.276;2022-11-20T07:06:08;96253.28;;;5.13;100.00
57232;BME280;43488;46.934;8.276;2022-11-20T07:08:38;96258.94;;;5.17;100.00
57232;BME280;43488;46.934;8.276;2022-11-20T07:11:07;96265.41;;;5.21;100.00
57232;BME280;43488;46.934;8.276;2022-11-20T07:13:34;96265.88;;;5.24;100.00
57232;BME280;43488;46.934;8.276;2022-11-20T07:16:06;96268.94;;;5.28;100.00
57232;BME280;43488;46.934;8.276;2022-11-20T07:18:35;96275.44;;;5.32;100.00
57232;BME280;43488;46.934;8.276;2022-11-20T07:21:06;96276.75;;;5.28;100.00
57232;BME280;43488;46.934;8.276;2022-11-20T07:23:34;96280.19;;;5.28;100.00
57232;BME280;43488;46.934;8.276;2022-11-20T07:26:08;96277.75;;;5.27;100.00
57232;BME280;43488;46.934;8.276;2022-11-20T07:28:36;96282.78;;;5.28;100.00
57232;BME280;43488;46.934;8.276;2022-11-20T07:31:04;96278.22;;;5.30;100.00
57232;BME280;43488;46.934;8.276;2022-11-20T07:33:32;96281.09;;;5.35;100.00
57232;BME280;43488;46.934;8.276;2022-11-20T07:36:01;96286.59;;;5.40;100.00
57232;BME280;43488;46.934;8.276;2022-11-20T07:38:28;96286.22;;;5.43;100.00
57232;BME280;43488;46.934;8.276;2022-11-20T07:40:57;96292.88;;;5.46;100.00
57232;BME280;43488;46.934;8.276;2022-11-20T07:43:25;96291.97;;;5.54;100.00
57232;BME280;43488;46.934;8.276;2022-11-20T07:45:55;96296.03;;;5.56;100.00
57232;BME280;43488;46.934;8.276;2022-11-20T07:48:23;96292.41;;;5.57;100.00
57232;BME280;43488;46.934;8.276;2022-11-20T07:50:54;96295.88;;;5.58;100.00
57232;BME280;43488;46.934;8.276;2022-11-20T07:53:23;96292.88;;;5.61;100.00
57232;BME280;43488;46.934;8.276;2022-11-20T07:55:53;96297.75;;;5.64;100.00
57232;BME280;43488;46.934;8.276;2022-11-20T07:58:21;96286.94;;;5.67;100.00
57232;BME280;43488;46.934;8.276;2022-11-20T08:00:49;96296.22;;;5.69;100.00
57232;BME280;43488;46.934;8.276;2022-11-20T08:03:16;96299.06;;;5.75;100.00
57232;BME280;43488;46.934;8.276;2022-11-20T08:05:44;96294.75;;;5.82;100.00
57232;BME280;43488;46.934;8.276;2022-11-20T08:08:12;96299.25;;;5.88;100.00
57232;BME280;43488;46.934;8.276;2022-11-20T08:10:41;96296.00;;;6.01;100.00
57232;BME280;43488;46.934;8.276;2022-11-20T08:13:09;96295.91;;;6.09;100.00
57232;BME280;43488;46.934;8.276;2022-11-20T08:15:54;96306.63;;;6.14;100.00
57232;BME280;43488;46.934;8.276;2022-11-20T08:18:22;96309.25;;;6.14;100.00
57232;BME280;43488;46.934;8.276;2022-11-20T08:20:52;96312.41;;;6.09;100.00
57232;BME280;43488;46.934;8.276;2022-11-20T08:23:19;96318.94;;;6.20;100.00
57232;BME280;43488;46.934;8.276;2022-11-20T08:25:50;96306.75;;;6.27;100.00
57232;BME280;43488;46.934;8.276;2022-11-20T08:28:18;96301.59;;;6.34;100.00
57232;BME280;43488;46.934;8.276;2022-11-20T08:30:45;96301.03;;;6.38;100.00
57232;BME280;43488;46.934;8.276;2022-11-20T08:33:12;96305.09;;;6.41;100.00
57232;BME280;43488;46.934;8.276;2022-11-20T08:35:40;96310.75;;;6.44;100.00
57232;BME280;43488;46.934;8.276;2022-11-20T08:38:09;96304.91;;;6.42;100.00
57232;BME280;43488;46.934;8.276;2022-11-20T08:40:37;96314.00;;;6.46;100.00
57232;BME280;43488;46.934;8.276;2022-11-20T08:43:04;96313.44;;;6.51;100.00
57232;BME280;43488;46.934;8.276;2022-11-20T08:45:32;96315.31;;;6.57;100.00
57232;BME280;43488;46.934;8.276;2022-11-20T08:48:03;96318.56;;;6.59;100.00
57232;BME280;43488;46.934;8.276;2022-11-20T08:50:31;96318.19;;;6.62;100.00
57232;BME280;43488;46.934;8.276;2022-11-20T08:53:06;96322.84;;;6.67;99.38
57232;BME280;43488;46.934;8.276;2022-11-20T08:55:34;96319.06;;;6.69;98.98
57232;BME280;43488;46.934;8.276;2022-11-20T08:58:05;96316.75;;;6.81;99.66
57232;BME280;43488;46.934;8.276;2022-11-20T09:00:34;96319.22;;;6.89;98.82
57232;BME280;43488;46.934;8.276;2022-11-20T09:03:02;96328.50;;;6.92;97.72
57232;BME280;43488;46.934;8.276;2022-11-20T09:05:29;96319.72;;;6.99;96.82
57232;BME280;43488;46.934;8.276;2022-11-20T09:07:58;96325.44;;;7.09;95.01
57232;BME280;43488;46.934;8.276;2022-11-20T09:10:27;96321.13;;;7.23;93.98
57232;BME280;43488;46.934;8.276;2022-11-20T09:12:55;96320.78;;;7.33;92.77
57232;BME280;43488;46.934;8.276;2022-11-20T09:15:25;96315.97;;;7.36;91.29
57232;BME280;43488;46.934;8.276;2022-11-20T09:17:57;96316.44;;;7.47;90.32
57232;BME280;43488;46.934;8.276;2022-11-20T09:20:29;96315.72;;;7.59;89.53
57232;BME280;43488;46.934;8.276;2022-11-20T09:22:57;96315.38;;;7.76;87.93
57232;BME280;43488;46.934;8.276;2022-11-20T09:25:25;96314.56;;;7.75;86.87
57232;BME280;43488;46.934;8.276;2022-11-20T09:27:57;96316.72;;;7.65;88.49
57232;BME280;43488;46.934;8.276;2022-11-20T09:30:26;96310.41;;;7.87;85.82
57232;BME280;43488;46.934;8.276;2022-11-20T09:32:56;96318.31;;;8.01;85.72
57232;BME280;43488;46.934;8.276;2022-11-20T09:35:24;96314.13;;;8.13;86.94
57232;BME280;43488;46.934;8.276;2022-11-20T09:37:51;96316.25;;;7.89;84.75
57232;BME280;43488;46.934;8.276;2022-11-20T09:40:27;96315.75;;;8.14;84.66
57232;BME280;43488;46.934;8.276;2022-11-20T09:43:20;96316.78;;;8.19;84.01
57232;BME280;43488;46.934;8.276;2022-11-20T09:46:22;96317.66;;;8.40;84.16
57232;BME280;43488;46.934;8.276;2022-11-20T09:49:32;96311.84;;;8.44;83.48
57232;BME280;43488;46.934;8.276;2022-11-20T09:52:43;96320.13;;;8.54;82.85
57232;BME280;43488;46.934;8.276;2022-11-20T09:55:14;96316.31;;;8.57;82.96
57232;BME280;43488;46.934;8.276;2022-11-20T09:57:46;96316.72;;;8.54;81.73
57232;BME280;43488;46.934;8.276;2022-11-20T10:00:15;96323.59;;;8.68;81.29
57232;BME280;43488;46.934;8.276;2022-11-20T10:03:21;96320.56;;;8.65;82.72
57232;BME280;43488;46.934;8.276;2022-11-20T10:05:55;96321.38;;;8.72;82.78
57232;BME280;43488;46.934;8.276;2022-11-20T10:08:48;96318.78;;;8.78;81.26
57232;BME280;43488;46.934;8.276;2022-11-20T10:11:54;96315.75;;;8.95;79.66
57232;BME280;43488;46.934;8.276;2022-11-20T10:29:14;96311.22;;;9.75;75.96
57232;BME280;43488;46.934;8.276;2022-11-20T10:31:46;96314.81;;;9.87;74.13
57232;BME280;43488;46.934;8.276;2022-11-20T10:34:48;96309.38;;;9.88;74.86
57232;BME280;43488;46.934;8.276;2022-11-20T10:37:24;96304.94;;;9.76;74.88
57232;BME280;43488;46.934;8.276;2022-11-20T10:42:47;96312.06;;;9.55;76.49
57232;BME280;43488;46.934;8.276;2022-11-20T10:47:57;96310.28;;;9.29;78.04
57232;BME280;43488;46.934;8.276;2022-11-20T10:50:28;96297.94;;;9.23;77.75
57232;BME280;43488;46.934;8.276;2022-11-20T10:53:44;96300.56;;;9.23;76.21
57232;BME280;43488;46.934;8.276;2022-11-20T11:02:41;96285.84;;;9.09;77.07
57232;BME280;43488;46.934;8.276;2022-11-20T11:08:04;96273.94;;;9.00;77.52
57232;BME280;43488;46.934;8.276;2022-11-20T11:13:26;96269.69;;;8.92;76.10
57232;BME280;43488;46.934;8.276;2022-11-20T11:15:55;96257.97;;;9.08;73.64
57232;BME280;43488;46.934;8.276;2022-11-20T11:18:31;96256.28;;;9.47;71.82
57232;BME280;43488;46.934;8.276;2022-11-20T11:21:03;96252.00;;;9.65;71.66
57232;BME280;43488;46.934;8.276;2022-11-20T11:23:40;96238.63;;;10.81;67.60
57232;BME280;43488;46.934;8.276;2022-11-20T11:26:24;96238.13;;;10.66;66.43
57232;BME280;43488;46.934;8.276;2022-11-20T11:28:58;96236.53;;;10.65;67.11
57232;BME280;43488;46.934;8.276;2022-11-20T11:31:32;96230.72;;;10.57;65.97
57232;BME280;43488;46.934;8.276;2022-11-20T11:34:14;96225.00;;;10.60;66.45
57232;BME280;43488;46.934;8.276;2022-11-20T11:36:57;96220.78;;;10.20;67.75
57232;BME280;43488;46.934;8.276;2022-11-20T11:39:27;96228.47;;;10.29;69.08
57232;BME280;43488;46.934;8.276;2022-11-20T11:41:55;96214.50;;;9.90;69.23
57232;BME280;43488;46.934;8.276;2022-11-20T11:44:34;96225.00;;;9.90;68.41
57232;BME280;43488;46.934;8.276;2022-11-20T11:47:31;96215.09;;;9.92;69.84
57232;BME280;43488;46.934;8.276;2022-11-20T11:53:16;96203.50;;;10.06;69.14
57232;BME280;43488;46.934;8.276;2022-11-20T11:55:57;96209.50;;;9.75;68.81
57232;BME280;43488;46.934;8.276;2022-11-20T11:58:46;96207.41;;;9.90;69.52
57232;BME280;43488;46.934;8.276;2022-11-20T12:01:43;96198.78;;;9.77;68.88
57232;BME280;43488;46.934;8.276;2022-11-20T12:04:46;96189.81;;;9.91;68.83
57232;BME280;43488;46.934;8.276;2022-11-20T12:10:51;96178.88;;;11.25;63.04
57232;BME280;43488;46.934;8.276;2022-11-20T12:16:19;96168.78;;;15.68;51.70
57232;BME280;43488;46.934;8.276;2022-11-20T12:18:50;96174.94;;;17.13;44.58
57232;BME280;43488;46.934;8.276;2022-11-20T12:21:31;96167.03;;;21.60;35.09
57232;BME280;43488;46.934;8.276;2022-11-20T12:24:44;96155.06;;;23.22;31.16
57232;BME280;43488;46.934;8.276;2022-11-20T12:30:15;96150.97;;;21.07;32.54
57232;BME280;43488;46.934;8.276;2022-11-20T12:51:42;96118.13;;;18.17;37.88
57232;BME280;43488;46.934;8.276;2022-11-20T12:54:37;96122.63;;;17.34;39.61
57232;BME280;43488;46.934;8.276;2022-11-20T12:57:51;96115.00;;;16.31;42.26
57232;BME280;43488;46.934;8.276;2022-11-20T13:00:22;96113.47;;;15.81;43.42
57232;BME280;43488;46.934;8.276;2022-11-20T13:06:04;96100.03;;;18.70;37.65
57232;BME280;43488;46.934;8.276;2022-11-20T13:08:40;96090.16;;;20.15;34.95
57232;BME280;43488;46.934;8.276;2022-11-20T13:12:02;96094.06;;;19.24;36.81
57232;BME280;43488;46.934;8.276;2022-11-20T13:14:58;96084.41;;;22.94;31.06
57232;BME280;43488;46.934;8.276;2022-11-20T13:17:39;96079.66;;;20.92;32.04
57232;BME280;43488;46.934;8.276;2022-11-20T13:20:17;96090.59;;;21.20;32.27
57232;BME280;43488;46.934;8.276;2022-11-20T13:22:50;96086.06;;;20.91;32.55
57232;BME280;43488;46.934;8.276;2022-11-20T13:25:35;96081.06;;;23.30;28.99
57232;BME280;43488;46.934;8.276;2022-11-20T13:30:54;96073.53;;;24.76;26.34
57232;BME280;43488;46.934;8.276;2022-11-20T13:33:37;96065.34;;;23.37;28.18
57232;BME280;43488;46.934;8.276;2022-11-20T13:36:23;96073.34;;;24.42;26.01
57232;BME280;43488;46.934;8.276;2022-11-20T13:38:54;96080.16;;;23.75;26.02
57232;BME280;43488;46.934;8.276;2022-11-20T13:41:34;96082.78;;;20.99;28.98
57232;BME280;43488;46.934;8.276;2022-11-20T13:44:23;96079.16;;;19.13;31.78
57232;BME280;43488;46.934;8.276;2022-11-20T13:46:51;96076.03;;;17.94;33.90
57232;BME280;43488;46.934;8.276;2022-11-20T13:49:27;96074.09;;;17.01;35.54
57232;BME280;43488;46.934;8.276;2022-11-20T13:55:43;96054.47;;;20.35;32.37
57232;BME280;43488;46.934;8.276;2022-11-20T14:01:15;96058.00;;;24.06;25.54
57232;BME280;43488;46.934;8.276;2022-11-20T14:03:43;96048.97;;;25.40;24.36
57232;BME280;43488;46.934;8.276;2022-11-20T14:06:29;96053.59;;;25.48;24.42
57232;BME280;43488;46.934;8.276;2022-11-20T14:08:59;96055.66;;;25.51;23.65
57232;BME280;43488;46.934;8.276;2022-11-20T14:11:28;96042.47;;;25.01;24.38
57232;BME280;43488;46.934;8.276;2022-11-20T14:13:58;96052.31;;;25.37;23.86
57232;BME280;43488;46.934;8.276;2022-11-20T14:16:29;96044.66;;;23.51;25.79
57232;BME280;43488;46.934;8.276;2022-11-20T14:19:11;96044.03;;;22.01;27.97
57232;BME280;43488;46.934;8.276;2022-11-20T14:21:49;96046.00;;;19.89;30.52
57232;BME280;43488;46.934;8.276;2022-11-20T14:24:21;96045.31;;;18.98;32.52
57232;BME280;43488;46.934;8.276;2022-11-20T14:26:50;96040.22;;;19.07;33.12
57232;BME280;43488;46.934;8.276;2022-11-20T14:29:22;96045.44;;;19.38;32.39
57232;BME280;43488;46.934;8.276;2022-11-20T14:31:53;96043.00;;;18.26;34.00
57232;BME280;43488;46.934;8.276;2022-11-20T14:34:30;96051.28;;;17.26;36.20
57232;BME280;43488;46.934;8.276;2022-11-20T14:37:01;96041.38;;;16.59;37.65
57232;BME280;43488;46.934;8.276;2022-11-20T14:39:37;96048.84;;;15.98;39.28
57232;BME280;43488;46.934;8.276;2022-11-20T14:42:23;96044.53;;;15.38;40.03
57232;BME280;43488;46.934;8.276;2022-11-20T14:44:55;96049.81;;;14.94;41.42
57232;BME280;43488;46.934;8.276;2022-11-20T14:47:29;96053.59;;;14.59;42.67
57232;BME280;43488;46.934;8.276;2022-11-20T14:49:58;96046.44;;;14.26;44.12
57232;BME280;43488;46.934;8.276;2022-11-20T14:52:27;96041.47;;;13.96;46.03
57232;BME280;43488;46.934;8.276;2022-11-20T14:54:57;96043.91;;;13.69;46.61